createdAt,value
2019-01-19T00:00:32.090Z,0.00
2019-01-19T00:01:32.002Z,0.00
2019-01-19T00:02:31.913Z,0.00
2019-01-19T00:03:31.826Z,0.00
2019-01-19T00:04:31.738Z,0.00
2019-01-19T00:05:31.651Z,0.00
2019-01-19T00:06:31.562Z,0.00
2019-01-19T00:07:31.475Z,0.00
2019-01-19T00:08:31.388Z,0.00
2019-01-19T00:09:31.299Z,0.00
2019-01-19T00:10:31.212Z,0.00
2019-01-19T00:11:31.124Z,0.00
2019-01-19T00:12:31.036Z,0.00
2019-01-19T00:13:30.948Z,0.00
2019-01-19T00:14:30.860Z,0.00
2019-01-19T00:15:30.773Z,0.00
2019-01-19T00:16:30.684Z,0.00
2019-01-19T00:17:30.598Z,0.00
2019-01-19T00:18:30.510Z,0.00
2019-01-19T00:19:30.421Z,0.00
2019-01-19T00:20:30.335Z,0.00
2019-01-19T00:21:30.244Z,0.00
2019-01-19T00:22:30.157Z,0.00
2019-01-19T00:23:30.069Z,0.00
2019-01-19T00:24:29.982Z,0.00
2019-01-19T00:25:29.895Z,0.00
2019-01-19T00:26:29.805Z,0.00
2019-01-19T00:27:29.718Z,0.00
2019-01-19T00:28:29.631Z,0.00
2019-01-19T00:29:29.543Z,0.00
2019-01-19T00:30:29.454Z,0.00
2019-01-19T00:31:29.368Z,0.00
2019-01-19T00:32:29.279Z,0.00
2019-01-19T00:33:29.192Z,0.00
2019-01-19T00:34:33.949Z,0.00
2019-01-19T00:35:29.016Z,0.00
2019-01-19T00:36:28.930Z,0.00
2019-01-19T00:37:28.841Z,0.00
2019-01-19T00:38:28.752Z,0.00
2019-01-19T00:39:28.666Z,0.00
2019-01-19T00:40:28.578Z,0.00
2019-01-19T00:41:28.490Z,0.00
2019-01-19T00:42:28.401Z,0.00
2019-01-19T00:43:28.316Z,0.00
2019-01-19T00:44:28.226Z,0.00
2019-01-19T00:45:28.140Z,0.00
2019-01-19T00:46:28.051Z,0.00
2019-01-19T00:47:27.963Z,0.00
2019-01-19T00:48:27.875Z,0.00
2019-01-19T00:49:27.789Z,0.00
2019-01-19T00:50:27.700Z,0.00
2019-01-19T00:51:27.611Z,0.00
2019-01-19T00:52:27.524Z,0.00
2019-01-19T00:53:27.436Z,0.00
2019-01-19T00:54:27.349Z,0.00
2019-01-19T00:55:27.260Z,0.00
2019-01-19T00:56:27.172Z,0.00
2019-01-19T00:57:27.086Z,0.00
2019-01-19T00:58:26.996Z,0.00
2019-01-19T00:59:26.911Z,0.00
2019-01-19T01:00:26.820Z,0.00
2019-01-19T01:01:26.734Z,0.00
2019-01-19T01:02:26.644Z,0.00
2019-01-19T01:03:26.558Z,0.00
2019-01-19T01:04:26.469Z,0.00
2019-01-19T01:05:26.381Z,0.00
2019-01-19T01:06:26.292Z,0.00
2019-01-19T01:07:26.204Z,0.00
2019-01-19T01:08:26.117Z,0.00
2019-01-19T01:09:26.029Z,0.00
2019-01-19T01:10:25.940Z,0.00
2019-01-19T01:11:25.903Z,0.00
2019-01-19T01:12:25.767Z,0.00
2019-01-19T01:13:25.677Z,0.00
2019-01-19T01:14:25.588Z,0.00
2019-01-19T01:15:25.500Z,0.00
2019-01-19T01:16:25.414Z,0.00
2019-01-19T01:17:25.325Z,0.00
2019-01-19T01:18:25.236Z,0.00
2019-01-19T01:19:25.148Z,0.00
2019-01-19T01:20:25.059Z,0.00
2019-01-19T01:21:24.973Z,0.00
2019-01-19T01:22:24.885Z,0.00
2019-01-19T01:23:24.794Z,0.00
2019-01-19T01:24:24.708Z,0.00
2019-01-19T01:25:24.621Z,0.00
2019-01-19T01:26:24.531Z,0.00
2019-01-19T01:27:24.442Z,0.00
2019-01-19T01:28:24.355Z,0.00
2019-01-19T01:29:24.267Z,0.00
2019-01-19T01:30:24.182Z,0.00
2019-01-19T01:31:24.090Z,0.00
2019-01-19T01:32:24.003Z,0.00
2019-01-19T01:33:23.914Z,0.00
2019-01-19T01:34:23.827Z,0.00
2019-01-19T01:35:23.740Z,0.00
2019-01-19T01:36:23.652Z,0.00
2019-01-19T01:37:23.564Z,0.00
2019-01-19T01:38:23.476Z,0.00
2019-01-19T01:39:23.387Z,0.00
2019-01-19T01:40:23.302Z,0.00
2019-01-19T01:41:23.211Z,0.00
2019-01-19T01:42:23.124Z,0.00
2019-01-19T01:43:23.035Z,0.00
2019-01-19T01:44:22.947Z,0.00
2019-01-19T01:45:22.859Z,0.00
2019-01-19T01:46:22.769Z,0.00
2019-01-19T01:47:22.682Z,0.00
2019-01-19T01:48:22.595Z,0.00
2019-01-19T01:49:22.507Z,0.00
2019-01-19T01:50:22.417Z,0.00
2019-01-19T01:51:22.329Z,0.00
2019-01-19T01:52:22.242Z,0.00
2019-01-19T01:53:22.154Z,0.00
2019-01-19T01:54:22.066Z,0.00
2019-01-19T01:55:21.976Z,0.00
2019-01-19T01:56:21.889Z,0.00
2019-01-19T01:57:21.801Z,0.00
2019-01-19T01:58:21.716Z,0.00
2019-01-19T01:59:21.623Z,0.00
2019-01-19T02:00:21.539Z,0.00
2019-01-19T02:01:21.446Z,0.00
2019-01-19T02:02:21.356Z,0.00
2019-01-19T02:03:21.271Z,0.00
2019-01-19T02:04:21.182Z,0.00
2019-01-19T02:05:21.094Z,0.00
2019-01-19T02:06:21.005Z,0.00
2019-01-19T02:07:20.917Z,0.00
2019-01-19T02:08:20.829Z,0.00
2019-01-19T02:09:20.739Z,0.00
2019-01-19T02:10:20.650Z,0.00
2019-01-19T02:11:20.562Z,0.00
2019-01-19T02:12:20.525Z,0.00
2019-01-19T02:13:20.388Z,0.00
2019-01-19T02:14:20.301Z,0.00
2019-01-19T02:15:20.207Z,0.00
2019-01-19T02:16:20.119Z,0.00
2019-01-19T02:17:20.031Z,0.00
2019-01-19T02:18:19.941Z,0.00
2019-01-19T02:19:19.855Z,0.00
2019-01-19T02:20:19.766Z,0.00
2019-01-19T02:21:19.676Z,0.00
2019-01-19T02:22:19.588Z,0.00
2019-01-19T02:23:19.500Z,0.00
2019-01-19T02:24:19.412Z,0.00
2019-01-19T02:25:19.326Z,0.00
2019-01-19T02:26:19.233Z,0.00
2019-01-19T02:27:19.146Z,0.00
2019-01-19T02:28:19.056Z,0.00
2019-01-19T02:29:18.969Z,0.00
2019-01-19T02:30:18.882Z,0.00
2019-01-19T02:31:18.790Z,0.00
2019-01-19T02:32:18.702Z,0.00
2019-01-19T02:33:18.612Z,0.00
2019-01-19T02:34:18.523Z,0.00
2019-01-19T02:35:18.433Z,0.00
2019-01-19T02:36:18.349Z,0.00
2019-01-19T02:37:18.258Z,0.00
2019-01-19T02:38:18.170Z,0.00
2019-01-19T02:39:18.087Z,0.00
2019-01-19T02:40:17.992Z,0.00
2019-01-19T02:41:17.904Z,0.00
2019-01-19T02:42:17.815Z,0.00
2019-01-19T02:43:17.726Z,0.00
2019-01-19T02:44:17.638Z,0.00
2019-01-19T02:45:17.548Z,0.00
2019-01-19T02:46:17.458Z,0.00
2019-01-19T02:47:17.370Z,0.00
2019-01-19T02:48:17.281Z,0.00
2019-01-19T02:49:17.194Z,0.00
2019-01-19T02:50:17.105Z,0.00
2019-01-19T02:51:17.018Z,0.00
2019-01-19T02:52:16.926Z,0.00
2019-01-19T02:53:17.187Z,0.00
2019-01-19T02:54:16.750Z,0.00
2019-01-19T02:55:16.661Z,0.00
2019-01-19T02:56:16.579Z,0.00
2019-01-19T02:57:16.484Z,0.00
2019-01-19T02:58:16.398Z,0.00
2019-01-19T02:59:16.305Z,0.00
2019-01-19T03:00:16.219Z,0.00
2019-01-19T03:01:16.129Z,0.00
2019-01-19T03:02:16.040Z,0.00
2019-01-19T03:03:15.951Z,0.00
2019-01-19T03:04:15.863Z,0.00
2019-01-19T03:05:15.786Z,0.00
2019-01-19T03:06:15.686Z,0.00
2019-01-19T03:07:15.596Z,0.00
2019-01-19T03:08:15.508Z,0.00
2019-01-19T03:09:15.420Z,0.00
2019-01-19T03:10:15.330Z,0.00
2019-01-19T03:11:15.243Z,0.00
2019-01-19T03:12:15.157Z,0.00
2019-01-19T03:13:15.065Z,0.00
2019-01-19T03:14:14.976Z,0.00
2019-01-19T03:15:14.887Z,0.00
2019-01-19T03:16:14.799Z,0.00
2019-01-19T03:17:14.711Z,0.00
2019-01-19T03:18:14.624Z,0.00
2019-01-19T03:19:14.532Z,0.00
2019-01-19T03:20:14.444Z,0.00
2019-01-19T03:21:14.356Z,0.00
2019-01-19T03:22:14.264Z,0.00
2019-01-19T03:23:14.176Z,0.00
2019-01-19T03:24:14.091Z,0.00
2019-01-19T03:25:13.999Z,0.00
2019-01-19T03:26:13.911Z,0.00
2019-01-19T03:27:13.823Z,0.00
2019-01-19T03:28:13.734Z,0.00
2019-01-19T03:29:13.649Z,0.00
2019-01-19T03:30:13.563Z,0.00
2019-01-19T03:31:13.473Z,0.00
2019-01-19T03:32:13.386Z,0.00
2019-01-19T03:33:13.292Z,0.00
2019-01-19T03:34:13.202Z,0.00
2019-01-19T03:35:13.163Z,0.00
2019-01-19T03:36:13.025Z,0.00
2019-01-19T03:37:12.938Z,0.00
2019-01-19T03:38:12.847Z,0.00
2019-01-19T03:39:12.758Z,0.00
2019-01-19T03:40:12.670Z,0.00
2019-01-19T03:41:12.582Z,0.00
2019-01-19T03:42:12.492Z,0.00
2019-01-19T03:43:12.405Z,0.00
2019-01-19T03:44:12.315Z,0.00
2019-01-19T03:45:12.227Z,0.00
2019-01-19T03:46:12.151Z,0.00
2019-01-19T03:47:12.055Z,0.00
2019-01-19T03:48:11.962Z,0.00
2019-01-19T03:49:11.873Z,0.00
2019-01-19T03:50:11.782Z,0.00
2019-01-19T03:51:11.694Z,0.00
2019-01-19T03:52:11.606Z,0.00
2019-01-19T03:53:11.518Z,0.00
2019-01-19T03:54:11.433Z,0.00
2019-01-19T03:55:11.390Z,0.00
2019-01-19T03:56:11.251Z,0.00
2019-01-19T03:57:11.162Z,0.00
2019-01-19T03:58:11.072Z,0.00
2019-01-19T03:59:10.986Z,0.00
2019-01-19T04:00:10.896Z,0.00
2019-01-19T04:01:10.806Z,0.00
2019-01-19T04:02:10.718Z,0.00
2019-01-19T04:03:10.628Z,0.00
2019-01-19T04:04:10.541Z,0.00
2019-01-19T04:05:10.453Z,0.00
2019-01-19T04:06:12.841Z,0.00
2019-01-19T04:07:10.278Z,0.00
2019-01-19T04:08:10.186Z,0.00
2019-01-19T04:09:10.097Z,0.00
2019-01-19T04:10:10.008Z,0.00
2019-01-19T04:11:09.919Z,0.00
2019-01-19T04:12:09.833Z,0.00
2019-01-19T04:13:09.743Z,0.00
2019-01-19T04:14:09.659Z,0.00
2019-01-19T04:15:09.565Z,0.00
2019-01-19T04:16:09.475Z,0.00
2019-01-19T04:17:09.388Z,0.00
2019-01-19T04:18:09.297Z,0.00
2019-01-19T04:19:09.208Z,0.00
2019-01-19T04:20:09.120Z,0.00
2019-01-19T04:21:09.035Z,0.00
2019-01-19T04:22:08.943Z,0.00
2019-01-19T04:23:08.854Z,0.00
2019-01-19T04:24:08.766Z,0.00
2019-01-19T04:25:08.678Z,0.00
2019-01-19T04:26:08.595Z,0.00
2019-01-19T04:27:08.499Z,0.00
2019-01-19T04:28:08.411Z,0.00
2019-01-19T04:29:08.324Z,0.00
2019-01-19T04:30:08.232Z,0.00
2019-01-19T04:31:08.156Z,0.00
2019-01-19T04:32:08.056Z,0.00
2019-01-19T04:33:07.970Z,0.00
2019-01-19T04:34:07.879Z,0.00
2019-01-19T04:35:07.792Z,0.00
2019-01-19T04:36:07.702Z,0.00
2019-01-19T04:37:07.623Z,0.00
2019-01-19T04:38:07.525Z,0.00
2019-01-19T04:39:07.435Z,0.00
2019-01-19T04:40:07.348Z,0.00
2019-01-19T04:41:07.259Z,0.00
2019-01-19T04:42:07.277Z,0.00
2019-01-19T04:43:07.132Z,0.00
2019-01-19T04:44:06.993Z,0.00
2019-01-19T04:45:06.904Z,0.00
2019-01-19T04:46:06.815Z,0.00
2019-01-19T04:47:06.726Z,0.00
2019-01-19T04:48:06.638Z,0.00
2019-01-19T04:49:06.550Z,0.00
2019-01-19T04:50:06.467Z,0.00
2019-01-19T04:51:06.382Z,0.00
2019-01-19T04:52:06.284Z,0.00
2019-01-19T04:53:06.197Z,0.00
2019-01-19T04:54:06.106Z,0.00
2019-01-19T04:55:06.023Z,0.00
2019-01-19T04:56:05.931Z,0.00
2019-01-19T04:57:05.841Z,0.00
2019-01-19T04:58:05.749Z,0.00
2019-01-19T04:59:05.662Z,0.00
2019-01-19T05:00:05.573Z,0.00
2019-01-19T05:01:05.488Z,0.00
2019-01-19T05:02:05.397Z,0.00
2019-01-19T05:03:05.307Z,0.00
2019-01-19T05:04:05.218Z,0.00
2019-01-19T05:05:05.130Z,0.00
2019-01-19T05:06:11.964Z,0.00
2019-01-19T05:07:04.952Z,0.00
2019-01-19T05:08:04.864Z,0.00
2019-01-19T05:09:04.773Z,0.00
2019-01-19T05:10:04.683Z,0.00
2019-01-19T05:11:04.599Z,0.00
2019-01-19T05:12:04.507Z,0.00
2019-01-19T05:13:04.569Z,0.00
2019-01-19T05:14:04.330Z,0.00
2019-01-19T05:15:04.246Z,0.00
2019-01-19T05:16:04.154Z,0.00
2019-01-19T05:17:04.068Z,0.00
2019-01-19T05:18:03.975Z,0.00
2019-01-19T05:19:03.888Z,0.00
2019-01-19T05:20:03.801Z,0.00
2019-01-19T05:21:03.711Z,0.00
2019-01-19T05:22:03.619Z,0.00
2019-01-19T05:23:03.533Z,0.00
2019-01-19T05:24:03.444Z,0.00
2019-01-19T05:25:03.355Z,0.00
2019-01-19T05:26:03.265Z,0.00
2019-01-19T05:27:03.177Z,0.00
2019-01-19T05:28:03.089Z,0.00
2019-01-19T05:29:03.001Z,0.00
2019-01-19T05:30:02.915Z,0.00
2019-01-19T05:31:02.823Z,0.00
2019-01-19T05:32:02.736Z,0.00
2019-01-19T05:33:02.646Z,0.00
2019-01-19T05:34:02.558Z,0.00
2019-01-19T05:35:02.468Z,0.00
2019-01-19T05:36:02.379Z,0.00
2019-01-19T05:37:02.290Z,0.00
2019-01-19T05:38:02.222Z,0.00
2019-01-19T05:39:02.113Z,0.00
2019-01-19T05:40:02.029Z,0.00
2019-01-19T05:41:01.940Z,0.00
2019-01-19T05:42:01.868Z,0.00
2019-01-19T05:43:01.759Z,0.00
2019-01-19T05:44:01.677Z,0.00
2019-01-19T05:45:01.583Z,0.00
2019-01-19T05:46:01.493Z,0.00
2019-01-19T05:47:01.405Z,0.00
2019-01-19T05:48:01.315Z,0.00
2019-01-19T05:49:01.226Z,0.00
2019-01-19T05:50:01.248Z,0.00
2019-01-19T05:51:01.051Z,0.00
2019-01-19T05:52:00.961Z,0.00
2019-01-19T05:53:00.871Z,0.00
2019-01-19T05:54:00.781Z,0.00
2019-01-19T05:55:00.694Z,0.00
2019-01-19T05:56:00.604Z,0.00
2019-01-19T05:57:00.517Z,0.00
2019-01-19T05:58:00.426Z,0.00
2019-01-19T05:59:00.337Z,0.00
2019-01-19T06:00:00.249Z,0.00
2019-01-19T06:01:00.159Z,0.00
2019-01-19T06:02:00.071Z,0.00
2019-01-19T06:02:59.985Z,0.00
2019-01-19T06:03:59.893Z,0.00
2019-01-19T06:04:59.804Z,0.00
2019-01-19T06:05:59.715Z,0.00
2019-01-19T06:06:59.626Z,0.00
2019-01-19T06:07:59.539Z,0.00
2019-01-19T06:08:59.447Z,0.00
2019-01-19T06:09:59.361Z,0.00
2019-01-19T06:10:59.270Z,0.00
2019-01-19T06:11:59.182Z,0.00
2019-01-19T06:12:59.094Z,0.00
2019-01-19T06:13:59.004Z,0.00
2019-01-19T06:14:58.915Z,0.00
2019-01-19T06:15:58.826Z,0.00
2019-01-19T06:16:58.737Z,0.00
2019-01-19T06:17:58.648Z,0.00
2019-01-19T06:18:58.559Z,0.00
2019-01-19T06:19:58.470Z,0.00
2019-01-19T06:20:58.381Z,0.00
2019-01-19T06:21:58.291Z,0.00
2019-01-19T06:22:58.203Z,0.00
2019-01-19T06:23:58.116Z,0.00
2019-01-19T06:24:58.025Z,0.00
2019-01-19T06:25:57.937Z,0.00
2019-01-19T06:26:57.853Z,0.00
2019-01-19T06:27:57.758Z,0.00
2019-01-19T06:28:57.669Z,0.00
2019-01-19T06:29:57.580Z,0.00
2019-01-19T06:30:57.491Z,0.00
2019-01-19T06:31:57.405Z,0.00
2019-01-19T06:32:57.317Z,0.00
2019-01-19T06:33:57.223Z,0.00
2019-01-19T06:34:57.137Z,0.00
2019-01-19T06:35:57.047Z,0.00
2019-01-19T06:36:56.959Z,0.00
2019-01-19T06:37:56.974Z,0.00
2019-01-19T06:38:56.784Z,0.00
2019-01-19T06:39:56.692Z,0.00
2019-01-19T06:40:56.603Z,0.00
2019-01-19T06:41:56.513Z,0.00
2019-01-19T06:42:56.426Z,0.00
2019-01-19T06:43:56.338Z,0.00
2019-01-19T06:44:56.248Z,0.00
2019-01-19T06:45:56.157Z,0.00
2019-01-19T06:46:56.069Z,0.00
2019-01-19T06:47:56.032Z,0.00
2019-01-19T06:48:55.892Z,0.00
2019-01-19T06:49:55.802Z,0.00
2019-01-19T06:50:55.714Z,0.00
2019-01-19T06:51:55.629Z,0.00
2019-01-19T06:52:55.536Z,0.00
2019-01-19T06:54:01.580Z,0.00
2019-01-19T06:54:55.357Z,0.00
2019-01-19T06:55:55.268Z,0.00
2019-01-19T06:56:55.180Z,0.00
2019-01-19T06:57:55.090Z,0.00
2019-01-19T06:58:55.001Z,0.00
2019-01-19T06:59:54.914Z,0.00
2019-01-19T07:00:54.826Z,0.00
2019-01-19T07:01:54.733Z,0.00
2019-01-19T07:02:54.647Z,0.00
2019-01-19T07:03:54.556Z,0.00
2019-01-19T07:04:54.466Z,0.00
2019-01-19T07:05:54.377Z,0.00
2019-01-19T07:06:54.289Z,0.00
2019-01-19T07:07:54.200Z,5.63
2019-01-19T07:08:54.113Z,5.63
2019-01-19T07:09:54.020Z,5.63
2019-01-19T07:10:53.930Z,5.63
2019-01-19T07:11:53.842Z,5.63
2019-01-19T07:12:53.755Z,5.63
2019-01-19T07:13:53.664Z,5.63
2019-01-19T07:14:53.574Z,5.63
2019-01-19T07:15:53.486Z,11.25
2019-01-19T07:16:53.402Z,11.25
2019-01-19T07:17:53.308Z,11.25
2019-01-19T07:18:53.220Z,11.25
2019-01-19T07:19:53.130Z,11.25
2019-01-19T07:20:53.041Z,11.25
2019-01-19T07:21:52.952Z,16.88
2019-01-19T07:22:52.864Z,16.88
2019-01-19T07:23:52.774Z,16.88
2019-01-19T07:24:52.685Z,16.88
2019-01-19T07:25:52.596Z,16.88
2019-01-19T07:26:52.507Z,22.50
2019-01-19T07:27:52.423Z,22.50
2019-01-19T07:28:52.329Z,22.50
2019-01-19T07:29:52.241Z,22.50
2019-01-19T07:30:52.151Z,28.13
2019-01-19T07:31:52.062Z,28.13
2019-01-19T07:32:51.976Z,28.13
2019-01-19T07:33:51.887Z,28.13
2019-01-19T07:34:51.797Z,28.13
2019-01-19T07:35:51.707Z,33.75
2019-01-19T07:36:51.617Z,33.75
2019-01-19T07:37:51.528Z,33.75
2019-01-19T07:38:51.539Z,33.75
2019-01-19T07:39:51.352Z,33.75
2019-01-19T07:40:51.262Z,39.38
2019-01-19T07:41:51.172Z,39.38
2019-01-19T07:42:51.084Z,39.38
2019-01-19T07:43:50.995Z,39.38
2019-01-19T07:44:50.907Z,39.38
2019-01-19T07:45:50.818Z,45.00
2019-01-19T07:46:55.934Z,45.00
2019-01-19T07:47:50.640Z,45.00
2019-01-19T07:48:50.552Z,45.00
2019-01-19T07:49:50.461Z,50.63
2019-01-19T07:50:50.374Z,50.63
2019-01-19T07:51:50.285Z,50.63
2019-01-19T07:52:50.196Z,50.63
2019-01-19T07:53:50.106Z,56.25
2019-01-19T07:54:50.018Z,56.25
2019-01-19T07:55:49.930Z,56.25
2019-01-19T07:56:49.842Z,56.25
2019-01-19T07:57:49.751Z,56.25
2019-01-19T07:58:49.662Z,61.88
2019-01-19T07:59:49.576Z,61.88
2019-01-19T08:00:49.486Z,61.88
2019-01-19T08:01:49.399Z,61.88
2019-01-19T08:02:49.308Z,61.88
2019-01-19T08:03:49.220Z,61.88
2019-01-19T08:04:49.132Z,67.50
2019-01-19T08:05:49.042Z,67.50
2019-01-19T08:06:48.960Z,67.50
2019-01-19T08:07:48.867Z,67.50
2019-01-19T08:08:48.777Z,67.50
2019-01-19T08:09:48.688Z,73.13
2019-01-19T08:10:48.598Z,73.13
2019-01-19T08:11:48.513Z,73.13
2019-01-19T08:12:48.422Z,73.13
2019-01-19T08:13:48.333Z,73.13
2019-01-19T08:14:48.245Z,73.13
2019-01-19T08:15:48.155Z,73.13
2019-01-19T08:16:48.068Z,73.13
2019-01-19T08:17:47.980Z,78.75
2019-01-19T08:18:47.890Z,78.75
2019-01-19T08:19:47.804Z,78.75
2019-01-19T08:20:47.714Z,78.75
2019-01-19T08:21:47.623Z,84.38
2019-01-19T08:22:47.536Z,84.38
2019-01-19T08:23:47.447Z,84.38
2019-01-19T08:24:47.359Z,84.38
2019-01-19T08:25:47.270Z,84.38
2019-01-19T08:26:47.181Z,84.38
2019-01-19T08:27:47.094Z,90.00
2019-01-19T08:28:47.003Z,90.00
2019-01-19T08:29:46.915Z,90.00
2019-01-19T08:30:46.825Z,90.00
2019-01-19T08:31:46.738Z,90.00
2019-01-19T08:32:46.649Z,90.00
2019-01-19T08:33:46.560Z,90.00
2019-01-19T08:34:46.665Z,90.00
2019-01-19T08:35:46.383Z,90.00
2019-01-19T08:36:46.295Z,95.63
2019-01-19T08:37:46.206Z,95.63
2019-01-19T08:38:46.117Z,95.63
2019-01-19T08:39:46.029Z,95.63
2019-01-19T08:40:45.939Z,95.63
2019-01-19T08:41:45.851Z,90.00
2019-01-19T08:42:45.763Z,95.63
2019-01-19T08:43:45.680Z,95.63
2019-01-19T08:44:45.589Z,95.63
2019-01-19T08:45:45.498Z,95.63
2019-01-19T08:46:45.410Z,95.63
2019-01-19T08:47:45.322Z,95.63
2019-01-19T08:48:45.234Z,101.25
2019-01-19T08:49:45.147Z,101.25
2019-01-19T08:50:45.057Z,106.88
2019-01-19T08:51:44.971Z,112.50
2019-01-19T08:52:44.880Z,112.50
2019-01-19T08:53:44.793Z,123.75
2019-01-19T08:54:44.709Z,129.38
2019-01-19T08:55:44.619Z,135.00
2019-01-19T08:56:44.531Z,146.25
2019-01-19T08:57:44.443Z,151.88
2019-01-19T08:58:44.353Z,157.50
2019-01-19T08:59:44.269Z,157.50
2019-01-19T09:00:44.179Z,168.75
2019-01-19T09:01:44.091Z,196.88
2019-01-19T09:02:44.006Z,202.50
2019-01-19T09:03:43.922Z,208.13
2019-01-19T09:04:43.831Z,208.13
2019-01-19T09:05:43.746Z,202.50
2019-01-19T09:06:43.657Z,191.25
2019-01-19T09:07:43.571Z,180.00
2019-01-19T09:08:43.483Z,168.75
2019-01-19T09:09:43.399Z,168.75
2019-01-19T09:10:43.312Z,185.63
2019-01-19T09:11:43.227Z,208.13
2019-01-19T09:12:43.141Z,219.38
2019-01-19T09:13:43.054Z,225.00
2019-01-19T09:14:42.971Z,219.38
2019-01-19T09:15:42.885Z,219.38
2019-01-19T09:16:42.800Z,213.75
2019-01-19T09:17:42.721Z,208.13
2019-01-19T09:18:42.630Z,196.88
2019-01-19T09:19:42.545Z,185.63
2019-01-19T09:20:42.460Z,180.00
2019-01-19T09:21:42.377Z,174.38
2019-01-19T09:22:42.294Z,185.63
2019-01-19T09:23:42.257Z,208.13
2019-01-19T09:24:42.125Z,213.75
2019-01-19T09:25:42.040Z,191.25
2019-01-19T09:26:41.957Z,174.38
2019-01-19T09:27:41.873Z,168.75
2019-01-19T09:28:41.788Z,191.25
2019-01-19T09:29:41.701Z,230.63
2019-01-19T09:30:41.618Z,247.50
2019-01-19T09:31:41.535Z,230.63
2019-01-19T09:32:41.450Z,196.88
2019-01-19T09:33:41.364Z,180.00
2019-01-19T09:34:41.280Z,180.00
2019-01-19T09:35:41.197Z,174.38
2019-01-19T09:36:41.112Z,180.00
2019-01-19T09:37:41.130Z,202.50
2019-01-19T09:38:40.943Z,225.00
2019-01-19T09:39:40.859Z,225.00
2019-01-19T09:40:40.774Z,253.13
2019-01-19T09:41:40.689Z,286.88
2019-01-19T09:42:40.605Z,275.63
2019-01-19T09:43:40.522Z,275.63
2019-01-19T09:44:40.440Z,264.38
2019-01-19T09:45:40.352Z,253.13
2019-01-19T09:46:40.267Z,275.63
2019-01-19T09:47:40.184Z,281.25
2019-01-19T09:48:40.100Z,264.38
2019-01-19T09:49:40.015Z,230.63
2019-01-19T09:50:39.931Z,219.38
2019-01-19T09:51:39.847Z,230.63
2019-01-19T09:52:39.763Z,225.00
2019-01-19T09:53:39.679Z,208.13
2019-01-19T09:54:39.595Z,202.50
2019-01-19T09:55:39.512Z,196.88
2019-01-19T09:56:39.426Z,208.13
2019-01-19T09:57:39.343Z,213.75
2019-01-19T09:58:39.261Z,219.38
2019-01-19T09:59:39.179Z,225.00
2019-01-19T10:00:45.508Z,241.88
2019-01-19T10:01:39.006Z,253.13
2019-01-19T10:02:38.921Z,236.25
2019-01-19T10:03:38.837Z,225.00
2019-01-19T10:04:38.756Z,247.50
2019-01-19T10:05:38.668Z,258.75
2019-01-19T10:06:38.584Z,241.88
2019-01-19T10:07:38.500Z,219.38
2019-01-19T10:08:38.416Z,213.75
2019-01-19T10:09:38.331Z,208.13
2019-01-19T10:10:38.247Z,208.13
2019-01-19T10:11:38.163Z,236.25
2019-01-19T10:12:38.080Z,213.75
2019-01-19T10:13:37.994Z,213.75
2019-01-19T10:14:37.911Z,241.88
2019-01-19T10:15:37.826Z,236.25
2019-01-19T10:16:37.742Z,225.00
2019-01-19T10:17:37.659Z,196.88
2019-01-19T10:18:37.573Z,225.00
2019-01-19T10:19:37.490Z,230.63
2019-01-19T10:20:37.405Z,225.00
2019-01-19T10:21:37.321Z,213.75
2019-01-19T10:22:37.236Z,191.25
2019-01-19T10:23:37.151Z,185.63
2019-01-19T10:24:37.068Z,180.00
2019-01-19T10:25:36.982Z,180.00
2019-01-19T10:26:36.899Z,185.63
2019-01-19T10:27:37.451Z,208.13
2019-01-19T10:28:36.730Z,241.88
2019-01-19T10:29:36.645Z,247.50
2019-01-19T10:30:36.561Z,303.75
2019-01-19T10:31:36.477Z,371.25
2019-01-19T10:32:36.392Z,371.25
2019-01-19T10:33:36.307Z,405.00
2019-01-19T10:34:36.222Z,416.25
2019-01-19T10:35:36.141Z,427.50
2019-01-19T10:36:36.054Z,371.25
2019-01-19T10:37:35.970Z,652.50
2019-01-19T10:38:35.885Z,1293.75
2019-01-19T10:39:35.807Z,1530.00
2019-01-19T10:40:35.716Z,1254.38
2019-01-19T10:41:40.801Z,894.38
2019-01-19T10:42:35.560Z,551.25
2019-01-19T10:43:35.468Z,410.63
2019-01-19T10:44:35.381Z,320.63
2019-01-19T10:45:35.298Z,275.63
2019-01-19T10:46:35.214Z,275.63
2019-01-19T10:47:35.132Z,320.63
2019-01-19T10:48:35.048Z,393.75
2019-01-19T10:49:34.965Z,455.63
2019-01-19T10:50:34.882Z,523.13
2019-01-19T10:51:34.800Z,551.25
2019-01-19T10:52:34.719Z,556.88
2019-01-19T10:53:34.634Z,551.25
2019-01-19T10:54:34.553Z,585.00
2019-01-19T10:55:34.472Z,601.88
2019-01-19T10:56:34.390Z,585.00
2019-01-19T10:57:34.311Z,528.75
2019-01-19T10:58:34.227Z,444.38
2019-01-19T10:59:34.148Z,433.13
2019-01-19T11:00:34.067Z,483.75
2019-01-19T11:01:33.987Z,478.13
2019-01-19T11:02:33.905Z,399.38
2019-01-19T11:03:33.824Z,348.75
2019-01-19T11:04:33.744Z,337.50
2019-01-19T11:05:33.664Z,348.75
2019-01-19T11:06:33.583Z,320.63
2019-01-19T11:07:33.503Z,348.75
2019-01-19T11:08:33.423Z,410.63
2019-01-19T11:09:33.341Z,376.88
2019-01-19T11:10:33.260Z,315.00
2019-01-19T11:11:33.219Z,303.75
2019-01-19T11:12:33.100Z,315.00
2019-01-19T11:13:33.018Z,365.63
2019-01-19T11:14:32.937Z,405.00
2019-01-19T11:15:32.856Z,393.75
2019-01-19T11:16:32.775Z,410.63
2019-01-19T11:17:32.694Z,427.50
2019-01-19T11:18:32.612Z,461.25
2019-01-19T11:19:32.532Z,500.63
2019-01-19T11:20:32.452Z,483.75
2019-01-19T11:21:32.369Z,461.25
2019-01-19T11:22:32.294Z,427.50
2019-01-19T11:23:32.211Z,371.25
2019-01-19T11:24:32.130Z,331.88
2019-01-19T11:25:32.049Z,331.88
2019-01-19T11:26:31.969Z,343.13
2019-01-19T11:27:31.889Z,365.63
2019-01-19T11:28:31.810Z,388.13
2019-01-19T11:29:31.728Z,393.75
2019-01-19T11:30:31.647Z,410.63
2019-01-19T11:31:31.568Z,438.75
2019-01-19T11:32:31.488Z,483.75
2019-01-19T11:33:31.407Z,461.25
2019-01-19T11:34:31.326Z,466.88
2019-01-19T11:35:31.249Z,545.63
2019-01-19T11:36:31.167Z,646.88
2019-01-19T11:37:31.087Z,708.75
2019-01-19T11:38:31.006Z,669.38
2019-01-19T11:39:30.927Z,613.13
2019-01-19T11:40:30.849Z,630.00
2019-01-19T11:41:30.767Z,663.75
2019-01-19T11:42:30.691Z,551.25
2019-01-19T11:43:30.612Z,523.13
2019-01-19T11:44:30.534Z,635.63
2019-01-19T11:45:30.455Z,742.50
2019-01-19T11:46:30.377Z,871.88
2019-01-19T11:47:30.300Z,939.38
2019-01-19T11:48:30.223Z,984.38
2019-01-19T11:49:30.146Z,1023.75
2019-01-19T11:50:30.069Z,1040.63
2019-01-19T11:51:29.990Z,1029.38
2019-01-19T11:52:29.913Z,1006.88
2019-01-19T11:53:29.836Z,1057.50
2019-01-19T11:54:29.758Z,1108.13
2019-01-19T11:55:29.680Z,1080.00
2019-01-19T11:56:29.620Z,1068.75
2019-01-19T11:57:29.523Z,1074.38
2019-01-19T11:58:29.447Z,1175.63
2019-01-19T11:59:29.371Z,1192.50
2019-01-19T12:00:29.304Z,1057.50
2019-01-19T12:01:29.214Z,1057.50
2019-01-19T12:02:29.135Z,967.50
2019-01-19T12:03:29.061Z,860.63
2019-01-19T12:04:28.983Z,832.50
2019-01-19T12:05:28.903Z,748.13
2019-01-19T12:06:28.829Z,624.38
2019-01-19T12:07:28.751Z,646.88
2019-01-19T12:08:28.673Z,669.38
2019-01-19T12:09:28.595Z,703.13
2019-01-19T12:10:28.516Z,776.25
2019-01-19T12:11:28.439Z,860.63
2019-01-19T12:12:28.360Z,748.13
2019-01-19T12:13:28.279Z,483.75
2019-01-19T12:14:28.201Z,433.13
2019-01-19T12:15:28.121Z,461.25
2019-01-19T12:16:28.042Z,517.50
2019-01-19T12:17:27.965Z,495.00
2019-01-19T12:18:27.888Z,517.50
2019-01-19T12:19:27.807Z,506.25
2019-01-19T12:20:27.725Z,433.13
2019-01-19T12:21:27.641Z,466.88
2019-01-19T12:22:27.558Z,511.88
2019-01-19T12:23:27.476Z,551.25
2019-01-19T12:24:27.445Z,646.88
2019-01-19T12:25:27.313Z,860.63
2019-01-19T12:26:27.232Z,905.63
2019-01-19T12:27:27.150Z,826.88
2019-01-19T12:28:27.069Z,787.50
2019-01-19T12:29:26.986Z,720.00
2019-01-19T12:30:26.904Z,736.88
2019-01-19T12:31:26.823Z,736.88
2019-01-19T12:32:26.741Z,725.63
2019-01-19T12:33:26.658Z,725.63
2019-01-19T12:34:26.578Z,691.88
2019-01-19T12:35:26.496Z,669.38
2019-01-19T12:36:26.416Z,686.25
2019-01-19T12:37:26.332Z,725.63
2019-01-19T12:38:26.898Z,725.63
2019-01-19T12:39:26.171Z,703.13
2019-01-19T12:40:26.090Z,601.88
2019-01-19T12:41:26.013Z,556.88
2019-01-19T12:42:25.927Z,601.88
2019-01-19T12:43:25.846Z,669.38
2019-01-19T12:44:25.764Z,613.13
2019-01-19T12:45:25.682Z,585.00
2019-01-19T12:46:25.601Z,556.88
2019-01-19T12:47:25.520Z,506.25
2019-01-19T12:48:25.442Z,540.00
2019-01-19T12:49:25.357Z,669.38
2019-01-19T12:50:25.275Z,731.25
2019-01-19T12:51:25.195Z,680.63
2019-01-19T12:52:25.115Z,680.63
2019-01-19T12:53:25.032Z,652.50
2019-01-19T12:54:24.952Z,703.13
2019-01-19T12:55:24.870Z,793.13
2019-01-19T12:56:24.789Z,630.00
2019-01-19T12:57:24.707Z,579.38